createdAt,value
2018-09-10T00:00:57.654Z,1017.10
2018-09-10T00:01:57.681Z,1017.14
2018-09-10T00:02:57.703Z,1017.18
2018-09-10T00:03:57.725Z,1017.17
2018-09-10T00:04:57.750Z,1017.20
2018-09-10T00:05:57.773Z,1017.18
2018-09-10T00:06:57.798Z,1017.19
2018-09-10T00:07:57.823Z,1017.15
2018-09-10T00:08:57.846Z,1017.20
2018-09-10T00:09:57.869Z,1017.16
2018-09-10T00:10:57.893Z,1017.17
2018-09-10T00:11:57.917Z,1017.16
2018-09-10T00:12:57.942Z,1017.14
2018-09-10T00:13:57.967Z,1017.16
2018-09-10T00:14:57.989Z,1017.13
2018-09-10T00:15:58.014Z,1017.13
2018-09-10T00:16:58.037Z,1017.16
2018-09-10T00:17:58.061Z,1017.12
2018-09-10T00:18:58.084Z,1017.11
2018-09-10T00:19:58.113Z,1017.09
2018-09-10T00:20:58.132Z,1017.12
2018-09-10T00:21:58.157Z,1017.09
2018-09-10T00:22:58.186Z,1017.15
2018-09-10T00:23:58.205Z,1017.12
2018-09-10T00:24:58.230Z,1017.13
2018-09-10T00:25:58.259Z,1017.11
2018-09-10T00:26:58.276Z,1017.09
2018-09-10T00:27:58.303Z,1017.10
2018-09-10T00:28:58.325Z,1017.13
2018-09-10T00:29:58.348Z,1017.09
2018-09-10T00:30:58.372Z,1017.07
2018-09-10T00:31:58.397Z,1017.07
2018-09-10T00:32:58.420Z,1017.08
2018-09-10T00:33:58.443Z,1017.04
2018-09-10T00:34:58.468Z,1017.04
2018-09-10T00:35:58.492Z,1017.03
2018-09-10T00:36:58.516Z,1017.03
2018-09-10T00:37:58.539Z,1016.99
2018-09-10T00:38:58.564Z,1016.99
2018-09-10T00:39:58.588Z,1017.01
2018-09-10T00:40:58.613Z,1017.03
2018-09-10T00:41:58.634Z,1017.00
2018-09-10T00:42:58.658Z,1017.00
2018-09-10T00:43:58.682Z,1017.04
2018-09-10T00:44:58.708Z,1017.04
2018-09-10T00:45:58.731Z,1017.02
2018-09-10T00:46:58.754Z,1016.99
2018-09-10T00:47:58.779Z,1016.99
2018-09-10T00:48:58.804Z,1017.01
2018-09-10T00:49:58.826Z,1017.00
2018-09-10T00:50:58.852Z,1017.01
2018-09-10T00:51:58.874Z,1017.00
2018-09-10T00:52:58.898Z,1017.01
2018-09-10T00:53:58.921Z,1016.98
2018-09-10T00:54:58.946Z,1016.98
2018-09-10T00:55:58.972Z,1017.02
2018-09-10T00:56:58.993Z,1017.00
2018-09-10T00:57:59.017Z,1017.00
2018-09-10T00:58:59.041Z,1017.00
2018-09-10T00:59:59.090Z,1016.98
2018-09-10T01:00:59.089Z,1016.95
2018-09-10T01:01:59.113Z,1016.97
2018-09-10T01:02:59.137Z,1016.98
2018-09-10T01:03:59.163Z,1016.99
2018-09-10T01:04:59.184Z,1017.01
2018-09-10T01:05:59.208Z,1016.98
2018-09-10T01:06:59.232Z,1017.00
2018-09-10T01:07:59.256Z,1016.92
2018-09-10T01:08:59.280Z,1016.90
2018-09-10T01:09:59.304Z,1016.94
2018-09-10T01:10:59.328Z,1016.89
2018-09-10T01:11:59.352Z,1016.86
2018-09-10T01:12:59.376Z,1016.82
2018-09-10T01:13:59.399Z,1016.86
2018-09-10T01:14:59.423Z,1016.87
2018-09-10T01:15:59.448Z,1016.82
2018-09-10T01:16:59.471Z,1016.80
2018-09-10T01:17:59.494Z,1016.79
2018-09-10T01:18:59.521Z,1016.81
2018-09-10T01:19:59.548Z,1016.81
2018-09-10T01:20:59.567Z,1016.78
2018-09-10T01:21:59.590Z,1016.80
2018-09-10T01:22:59.614Z,1016.80
2018-09-10T01:23:59.638Z,1016.81
2018-09-10T01:24:59.662Z,1016.78
2018-09-10T01:25:59.686Z,1016.76
2018-09-10T01:26:59.710Z,1016.78
2018-09-10T01:27:59.735Z,1016.80
2018-09-10T01:28:59.759Z,1016.80
2018-09-10T01:29:59.782Z,1016.80
2018-09-10T01:30:59.805Z,1016.83
2018-09-10T01:31:59.831Z,1016.84
2018-09-10T01:32:59.853Z,1016.83
2018-09-10T01:33:59.876Z,1016.86
2018-09-10T01:34:59.900Z,1016.86
2018-09-10T01:35:59.925Z,1016.83
2018-09-10T01:36:59.949Z,1016.84
2018-09-10T01:37:59.972Z,1016.86
2018-09-10T01:39:00.000Z,1016.87
2018-09-10T01:40:00.027Z,1016.89
2018-09-10T01:41:00.044Z,1016.86
2018-09-10T01:42:00.068Z,1016.90
2018-09-10T01:43:00.100Z,1016.84
2018-09-10T01:44:00.117Z,1016.85
2018-09-10T01:45:00.140Z,1016.85
2018-09-10T01:46:00.164Z,1016.84
2018-09-10T01:47:00.191Z,1016.80
2018-09-10T01:48:00.211Z,1016.85
2018-09-10T01:49:00.235Z,1016.81
2018-09-10T01:50:00.258Z,1016.85
2018-09-10T01:51:00.283Z,1016.83
2018-09-10T01:52:00.309Z,1016.82
2018-09-10T01:53:00.330Z,1016.79
2018-09-10T01:54:00.353Z,1016.81
2018-09-10T01:55:00.381Z,1016.78
2018-09-10T01:56:00.402Z,1016.79
2018-09-10T01:57:00.427Z,1016.77
2018-09-10T01:58:00.452Z,1016.74
2018-09-10T01:59:00.473Z,1016.76
2018-09-10T02:00:00.497Z,1016.78
2018-09-10T02:01:00.525Z,1016.76
2018-09-10T02:02:00.545Z,1016.76
2018-09-10T02:03:00.569Z,1016.78
2018-09-10T02:04:00.595Z,1016.77
2018-09-10T02:05:00.617Z,1016.77
2018-09-10T02:06:00.640Z,1016.76
2018-09-10T02:07:00.669Z,1016.75
2018-09-10T02:08:00.690Z,1016.74
2018-09-10T02:09:00.712Z,1016.78
2018-09-10T02:10:00.735Z,1016.77
2018-09-10T02:11:00.759Z,1016.77
2018-09-10T02:12:00.783Z,1016.79
2018-09-10T02:13:00.807Z,1016.79
2018-09-10T02:14:00.831Z,1016.78
2018-09-10T02:15:00.855Z,1016.79
2018-09-10T02:16:00.879Z,1016.79
2018-09-10T02:17:00.910Z,1016.75
2018-09-10T02:18:00.927Z,1016.72
2018-09-10T02:19:00.951Z,1016.74
2018-09-10T02:20:00.978Z,1016.72
2018-09-10T02:21:00.999Z,1016.79
2018-09-10T02:22:01.022Z,1016.76
2018-09-10T02:23:01.047Z,1016.74
2018-09-10T02:24:01.070Z,1016.80
2018-09-10T02:25:01.097Z,1016.79
2018-09-10T02:26:01.121Z,1016.81
2018-09-10T02:27:01.141Z,1016.79
2018-09-10T02:28:01.165Z,1016.80
2018-09-10T02:29:01.189Z,1016.78
2018-09-10T02:30:01.213Z,1016.80
2018-09-10T02:31:01.236Z,1016.79
2018-09-10T02:32:01.260Z,1016.75
2018-09-10T02:33:01.285Z,1016.75
2018-09-10T02:34:01.308Z,1016.74
2018-09-10T02:35:01.331Z,1016.74
2018-09-10T02:36:01.356Z,1016.75
2018-09-10T02:37:01.382Z,1016.67
2018-09-10T02:38:01.404Z,1016.64
2018-09-10T02:39:01.431Z,1016.60
2018-09-10T02:40:01.453Z,1016.59
2018-09-10T02:41:01.476Z,1016.56
2018-09-10T02:42:01.499Z,1016.56
2018-09-10T02:43:01.523Z,1016.57
2018-09-10T02:44:01.549Z,1016.57
2018-09-10T02:45:01.572Z,1016.58
2018-09-10T02:46:01.595Z,1016.63
2018-09-10T02:47:01.618Z,1016.65
2018-09-10T02:48:01.642Z,1016.72
2018-09-10T02:49:01.666Z,1016.75
2018-09-10T02:50:01.692Z,1016.82
2018-09-10T02:51:01.713Z,1016.81
2018-09-10T02:52:01.738Z,1016.84
2018-09-10T02:53:01.763Z,1016.84
2018-09-10T02:54:01.784Z,1016.85
2018-09-10T02:55:01.854Z,1016.84
2018-09-10T02:56:01.834Z,1016.77
2018-09-10T02:57:01.856Z,1016.74
2018-09-10T02:58:01.883Z,1016.77
2018-09-10T02:59:01.907Z,1016.74
2018-09-10T03:00:01.928Z,1016.66
2018-09-10T03:01:01.952Z,1016.60
2018-09-10T03:02:01.977Z,1016.63
2018-09-10T03:03:02.000Z,1016.69
2018-09-10T03:04:02.023Z,1016.73
2018-09-10T03:05:02.047Z,1016.79
2018-09-10T03:06:02.070Z,1016.84
2018-09-10T03:07:02.097Z,1016.84
2018-09-10T03:08:02.118Z,1016.87
2018-09-10T03:09:02.142Z,1016.87
2018-09-10T03:10:02.165Z,1016.80
2018-09-10T03:11:02.188Z,1016.81
2018-09-10T03:12:02.213Z,1016.79
2018-09-10T03:13:02.237Z,1016.79
2018-09-10T03:14:02.266Z,1016.85
2018-09-10T03:15:02.284Z,1016.85
2018-09-10T03:16:02.309Z,1016.86
2018-09-10T03:17:02.331Z,1016.83
2018-09-10T03:18:02.394Z,1016.85
2018-09-10T03:19:02.379Z,1016.81
2018-09-10T03:20:02.402Z,1016.78
2018-09-10T03:21:02.458Z,1016.76
2018-09-10T03:22:02.451Z,1016.71
2018-09-10T03:23:02.481Z,1016.75
2018-09-10T03:24:02.542Z,1016.72
2018-09-10T03:25:02.522Z,1016.69
2018-09-10T03:26:02.549Z,1016.68
2018-09-10T03:27:02.569Z,1016.65
2018-09-10T03:28:02.594Z,1016.57
2018-09-10T03:29:02.618Z,1016.60
2018-09-10T03:30:02.639Z,1016.59
2018-09-10T03:31:02.664Z,1016.59
2018-09-10T03:32:02.691Z,1016.66
2018-09-10T03:33:02.713Z,1016.61
2018-09-10T03:34:02.734Z,1016.67
2018-09-10T03:35:02.759Z,1016.73
2018-09-10T03:36:02.783Z,1016.73
2018-09-10T03:37:02.808Z,1016.68
2018-09-10T03:38:02.829Z,1016.72
2018-09-10T03:39:02.855Z,1016.75
2018-09-10T03:40:02.877Z,1016.68
2018-09-10T03:41:02.901Z,1016.70
2018-09-10T03:42:02.925Z,1016.70
2018-09-10T03:43:02.949Z,1016.72
2018-09-10T03:44:02.973Z,1016.70
2018-09-10T03:45:02.996Z,1016.71
2018-09-10T03:46:03.022Z,1016.68
2018-09-10T03:47:03.046Z,1016.73
2018-09-10T03:48:03.067Z,1016.69
2018-09-10T03:49:03.091Z,1016.70
2018-09-10T03:50:03.113Z,1016.66
2018-09-10T03:51:03.140Z,1016.67
2018-09-10T03:52:03.162Z,1016.61
2018-09-10T03:53:03.185Z,1016.63
2018-09-10T03:54:03.210Z,1016.65
2018-09-10T03:55:03.237Z,1016.60
2018-09-10T03:56:03.256Z,1016.61
2018-09-10T03:57:03.281Z,1016.62
2018-09-10T03:58:03.304Z,1016.66
2018-09-10T03:59:03.326Z,1016.64
2018-09-10T04:00:03.351Z,1016.64
2018-09-10T04:01:03.374Z,1016.65
2018-09-10T04:02:03.402Z,1016.68
2018-09-10T04:03:03.421Z,1016.68
2018-09-10T04:04:03.449Z,1016.69
2018-09-10T04:05:03.469Z,1016.67
2018-09-10T04:06:03.492Z,1016.64
2018-09-10T04:07:03.516Z,1016.60
2018-09-10T04:08:03.540Z,1016.61
2018-09-10T04:09:03.563Z,1016.60
2018-09-10T04:10:03.588Z,1016.54
2018-09-10T04:11:03.609Z,1016.52
2018-09-10T04:12:03.634Z,1016.48
2018-09-10T04:13:03.660Z,1016.48
2018-09-10T04:14:03.681Z,1016.45
2018-09-10T04:15:03.709Z,1016.45
2018-09-10T04:16:03.728Z,1016.53
2018-09-10T04:17:03.761Z,1016.50
2018-09-10T04:18:03.776Z,1016.52
2018-09-10T04:19:03.799Z,1016.51
2018-09-10T04:20:03.823Z,1016.49
2018-09-10T04:21:03.847Z,1016.53
2018-09-10T04:22:03.869Z,1016.55
2018-09-10T04:23:03.893Z,1016.56
2018-09-10T04:24:03.917Z,1016.58
2018-09-10T04:25:03.942Z,1016.63
2018-09-10T04:26:04.001Z,1016.65
2018-09-10T04:27:03.996Z,1016.66
2018-09-10T04:28:04.012Z,1016.68
2018-09-10T04:29:04.036Z,1016.66
2018-09-10T04:30:04.060Z,1016.64
2018-09-10T04:31:04.082Z,1016.65
2018-09-10T04:32:04.106Z,1016.60
2018-09-10T04:33:04.132Z,1016.57
2018-09-10T04:34:04.153Z,1016.56
2018-09-10T04:35:04.177Z,1016.58
2018-09-10T04:36:04.263Z,1016.59
2018-09-10T04:37:04.226Z,1016.61
2018-09-10T04:38:04.252Z,1016.58
2018-09-10T04:39:04.273Z,1016.50
2018-09-10T04:40:04.297Z,1016.50
2018-09-10T04:41:04.321Z,1016.43
2018-09-10T04:42:04.350Z,1016.41
2018-09-10T04:43:04.368Z,1016.47
2018-09-10T04:44:04.393Z,1016.47
2018-09-10T04:45:04.414Z,1016.49
2018-09-10T04:46:04.436Z,1016.47
2018-09-10T04:47:04.460Z,1016.51
2018-09-10T04:48:04.485Z,1016.57
2018-09-10T04:49:04.508Z,1016.50
2018-09-10T04:50:04.532Z,1016.54
2018-09-10T04:51:04.555Z,1016.60
2018-09-10T04:52:04.579Z,1016.61
2018-09-10T04:53:04.604Z,1016.63
2018-09-10T04:54:04.625Z,1016.62
2018-09-10T04:55:04.652Z,1016.64
2018-09-10T04:56:04.673Z,1016.62
2018-09-10T04:57:04.696Z,1016.65
2018-09-10T04:58:04.820Z,1016.70
2018-09-10T04:59:04.743Z,1016.72
2018-09-10T05:00:04.768Z,1016.70
2018-09-10T05:01:04.793Z,1016.73
2018-09-10T05:02:04.813Z,1016.72
2018-09-10T05:03:04.838Z,1016.72
2018-09-10T05:04:04.864Z,1016.75
2018-09-10T05:05:04.886Z,1016.77
2018-09-10T05:06:04.909Z,1016.78
2018-09-10T05:07:04.933Z,1016.78
2018-09-10T05:08:05.012Z,1016.78
2018-09-10T05:09:04.979Z,1016.76
2018-09-10T05:10:05.076Z,1016.73
2018-09-10T05:11:05.026Z,1016.73
2018-09-10T05:12:05.050Z,1016.73
2018-09-10T05:13:05.074Z,1016.72
2018-09-10T05:14:05.098Z,1016.72
2018-09-10T05:15:05.120Z,1016.76
2018-09-10T05:16:05.144Z,1016.75
2018-09-10T05:17:05.169Z,1016.80
2018-09-10T05:18:05.191Z,1016.79
2018-09-10T05:19:05.216Z,1016.78
2018-09-10T05:20:05.239Z,1016.75
2018-09-10T05:21:05.263Z,1016.75
2018-09-10T05:22:05.342Z,1016.77
2018-09-10T05:23:05.309Z,1016.73
2018-09-10T05:24:05.333Z,1016.76
2018-09-10T05:25:05.356Z,1016.71
2018-09-10T05:26:05.379Z,1016.72
2018-09-10T05:27:05.403Z,1016.75
2018-09-10T05:28:05.442Z,1016.75
2018-09-10T05:29:05.457Z,1016.73
2018-09-10T05:30:05.474Z,1016.75
2018-09-10T05:31:05.497Z,1016.73
2018-09-10T05:32:05.523Z,1016.72
2018-09-10T05:33:05.548Z,1016.72
2018-09-10T05:34:05.568Z,1016.76
2018-09-10T05:35:05.597Z,1016.75
2018-09-10T05:36:05.615Z,1016.75
2018-09-10T05:37:05.640Z,1016.74
2018-09-10T05:38:05.664Z,1016.76
2018-09-10T05:39:05.686Z,1016.77
2018-09-10T05:40:05.710Z,1016.80
2018-09-10T05:41:05.736Z,1016.77
2018-09-10T05:42:05.760Z,1016.81
2018-09-10T05:43:05.781Z,1016.81
2018-09-10T05:44:05.806Z,1016.84
2018-09-10T05:45:05.829Z,1016.85
2018-09-10T05:46:05.852Z,1016.84
2018-09-10T05:47:05.877Z,1016.90
2018-09-10T05:48:05.900Z,1016.98
2018-09-10T05:49:05.923Z,1017.01
2018-09-10T05:50:05.948Z,1017.02
2018-09-10T05:51:05.971Z,1017.02
2018-09-10T05:52:05.997Z,1017.08
2018-09-10T05:53:06.041Z,1017.08
2018-09-10T05:54:06.040Z,1017.07
2018-09-10T05:55:06.064Z,1017.04
2018-09-10T05:56:06.090Z,1017.09
2018-09-10T05:57:06.115Z,1017.09
2018-09-10T05:58:06.142Z,1017.13
2018-09-10T05:59:06.160Z,1017.13
2018-09-10T06:00:06.182Z,1017.21
2018-09-10T06:01:06.206Z,1017.15
2018-09-10T06:02:06.229Z,1017.20
2018-09-10T06:03:06.252Z,1017.23
2018-09-10T06:04:06.278Z,1017.26
2018-09-10T06:05:06.300Z,1017.21
2018-09-10T06:06:06.323Z,1017.25
2018-09-10T06:07:06.347Z,1017.25
2018-09-10T06:08:06.370Z,1017.24
2018-09-10T06:09:06.395Z,1017.29
2018-09-10T06:10:06.419Z,1017.30
2018-09-10T06:11:06.441Z,1017.32
2018-09-10T06:12:06.464Z,1017.32
2018-09-10T06:13:06.489Z,1017.26
2018-09-10T06:14:06.511Z,1017.32
2018-09-10T06:15:06.535Z,1017.34
2018-09-10T06:16:06.560Z,1017.30
2018-09-10T06:17:06.583Z,1017.24
2018-09-10T06:18:06.606Z,1017.21
2018-09-10T06:19:06.630Z,1017.22
2018-09-10T06:20:06.653Z,1017.23
2018-09-10T06:21:06.680Z,1017.24
2018-09-10T06:22:06.700Z,1017.22
2018-09-10T06:23:06.725Z,1017.23
2018-09-10T06:24:06.754Z,1017.18
2018-09-10T06:25:06.773Z,1017.15
2018-09-10T06:26:06.795Z,1017.14
2018-09-10T06:27:06.821Z,1017.26
2018-09-10T06:28:06.843Z,1017.26
2018-09-10T06:29:06.868Z,1017.27
2018-09-10T06:30:06.907Z,1017.29
2018-09-10T06:31:06.921Z,1017.29
2018-09-10T06:32:06.938Z,1017.28
2018-09-10T06:33:06.961Z,1017.30
2018-09-10T06:34:07.054Z,1017.31
2018-09-10T06:35:07.008Z,1017.30
2018-09-10T06:36:07.031Z,1017.32
2018-09-10T06:37:07.115Z,1017.30
2018-09-10T06:38:07.079Z,1017.29
2018-09-10T06:39:07.102Z,1017.32
2018-09-10T06:40:07.126Z,1017.34
2018-09-10T06:41:07.154Z,1017.34
2018-09-10T06:42:07.175Z,1017.29
2018-09-10T06:43:07.197Z,1017.28
2018-09-10T06:44:07.220Z,1017.31
2018-09-10T06:45:07.257Z,1017.28
2018-09-10T06:46:07.270Z,1017.29
2018-09-10T06:47:07.291Z,1017.26
2018-09-10T06:48:07.316Z,1017.27
2018-09-10T06:49:07.339Z,1017.27
2018-09-10T06:50:07.366Z,1017.23
2018-09-10T06:51:07.387Z,1017.20
2018-09-10T06:52:07.414Z,1017.23
2018-09-10T06:53:07.436Z,1017.20
2018-09-10T06:54:07.460Z,1017.24
2018-09-10T06:55:07.483Z,1017.22
2018-09-10T06:56:07.507Z,1017.22
2018-09-10T06:57:07.537Z,1017.24
2018-09-10T06:58:07.554Z,1017.24
2018-09-10T06:59:07.584Z,1017.29
2018-09-10T07:00:07.608Z,1017.27
2018-09-10T07:01:07.627Z,1017.29
2018-09-10T07:02:07.649Z,1017.32
2018-09-10T07:03:07.673Z,1017.33
2018-09-10T07:04:07.698Z,1017.37
2018-09-10T07:05:07.724Z,1017.38
2018-09-10T07:06:07.744Z,1017.37
2018-09-10T07:07:07.769Z,1017.46
2018-09-10T07:08:07.793Z,1017.40
2018-09-10T07:09:07.816Z,1017.39
2018-09-10T07:10:07.840Z,1017.34
2018-09-10T07:11:07.864Z,1017.37
2018-09-10T07:12:07.889Z,1017.39
2018-09-10T07:13:07.931Z,1017.40
2018-09-10T07:14:07.938Z,1017.48
2018-09-10T07:15:07.959Z,1017.48
2018-09-10T07:16:07.984Z,1017.50
2018-09-10T07:17:08.009Z,1017.48
2018-09-10T07:18:08.032Z,1017.43
2018-09-10T07:19:08.148Z,1017.47
2018-09-10T07:20:08.079Z,1017.38
2018-09-10T07:21:08.103Z,1017.42
2018-09-10T07:22:08.130Z,1017.42
2018-09-10T07:23:08.150Z,1017.45
2018-09-10T07:24:08.173Z,1017.42
2018-09-10T07:25:08.199Z,1017.41
2018-09-10T07:26:08.222Z,1017.43
2018-09-10T07:27:08.247Z,1017.44
2018-09-10T07:28:08.271Z,1017.45
2018-09-10T07:29:08.294Z,1017.44
2018-09-10T07:30:08.319Z,1017.45
2018-09-10T07:31:08.342Z,1017.47
2018-09-10T07:32:08.368Z,1017.48
2018-09-10T07:33:08.390Z,1017.47
2018-09-10T07:34:08.412Z,1017.48
2018-09-10T07:35:08.439Z,1017.47
2018-09-10T07:36:08.464Z,1017.48
2018-09-10T07:37:08.487Z,1017.46
2018-09-10T07:38:08.512Z,1017.46
2018-09-10T07:39:08.534Z,1017.48
2018-09-10T07:40:08.559Z,1017.46
2018-09-10T07:41:08.587Z,1017.43
2018-09-10T07:42:08.608Z,1017.49
2018-09-10T07:43:08.633Z,1017.47
2018-09-10T07:44:08.686Z,1017.47
2018-09-10T07:45:08.681Z,1017.48
2018-09-10T07:46:08.704Z,1017.49
2018-09-10T07:47:08.730Z,1017.50
2018-09-10T07:48:08.755Z,1017.51
2018-09-10T07:49:08.777Z,1017.46
2018-09-10T07:50:08.804Z,1017.44
2018-09-10T07:51:08.826Z,1017.44
2018-09-10T07:52:08.873Z,1017.42
2018-09-10T07:53:08.877Z,1017.44
2018-09-10T07:54:08.900Z,1017.48
2018-09-10T07:55:08.924Z,1017.46
2018-09-10T07:56:08.949Z,1017.47
2018-09-10T07:57:08.979Z,1017.47
2018-09-10T07:58:08.997Z,1017.48
2018-09-10T07:59:09.025Z,1017.49
2018-09-10T08:00:09.048Z,1017.52
2018-09-10T08:01:09.070Z,1017.54
2018-09-10T08:02:09.094Z,1017.57
2018-09-10T08:03:09.212Z,1017.57
2018-09-10T08:04:09.145Z,1017.61
2018-09-10T08:05:09.171Z,1017.62
2018-09-10T08:06:09.198Z,1017.62
2018-09-10T08:07:09.220Z,1017.61
2018-09-10T08:08:09.243Z,1017.62
2018-09-10T08:09:09.364Z,1017.65
2018-09-10T08:10:09.300Z,1017.67
2018-09-10T08:11:09.321Z,1017.69
2018-09-10T08:12:09.343Z,1017.68
2018-09-10T08:13:09.371Z,1017.64
2018-09-10T08:14:09.406Z,1017.62
2018-09-10T08:15:09.417Z,1017.64
2018-09-10T08:16:09.446Z,1017.71
2018-09-10T08:17:09.473Z,1017.76
2018-09-10T08:18:09.490Z,1017.75
2018-09-10T08:19:09.522Z,1017.76
2018-09-10T08:20:09.550Z,1017.74
2018-09-10T08:21:09.565Z,1017.73
2018-09-10T08:22:09.594Z,1017.77
2018-09-10T08:23:09.616Z,1017.79
2018-09-10T08:24:09.714Z,1017.81
2018-09-10T08:25:09.715Z,1017.85
2018-09-10T08:26:09.692Z,1017.84
2018-09-10T08:27:09.719Z,1017.84
2018-09-10T08:28:09.742Z,1017.80
2018-09-10T08:29:09.767Z,1017.75
2018-09-10T08:30:09.793Z,1017.69
2018-09-10T08:31:09.816Z,1017.63
2018-09-10T08:32:09.840Z,1017.57
2018-09-10T08:33:09.866Z,1017.59
2018-09-10T08:34:09.890Z,1017.64
2018-09-10T08:35:09.914Z,1017.70
2018-09-10T08:36:09.940Z,1017.69
2018-09-10T08:37:09.966Z,1017.72
2018-09-10T08:38:09.994Z,1017.73
2018-09-10T08:39:10.021Z,1017.72
2018-09-10T08:40:10.041Z,1017.73
2018-09-10T08:41:10.062Z,1017.77
2018-09-10T08:42:10.087Z,1017.76
2018-09-10T08:43:10.112Z,1017.74
2018-09-10T08:44:10.140Z,1017.74
2018-09-10T08:45:10.164Z,1017.74
2018-09-10T08:46:10.192Z,1017.77
2018-09-10T08:47:10.216Z,1017.73
2018-09-10T08:48:10.254Z,1017.72
2018-09-10T08:49:10.266Z,1017.74
2018-09-10T08:50:10.294Z,1017.69
2018-09-10T08:51:10.315Z,1017.69
2018-09-10T08:52:10.340Z,1017.67
2018-09-10T08:53:10.366Z,1017.69
2018-09-10T08:54:10.507Z,1017.70
2018-09-10T08:55:10.519Z,1017.73
2018-09-10T08:56:10.702Z,1017.78
2018-09-10T08:57:10.465Z,1017.82
2018-09-10T08:58:10.490Z,1017.91
2018-09-10T08:59:10.516Z,1017.93
2018-09-10T09:00:10.575Z,1017.96
2018-09-10T09:01:10.567Z,1017.96
2018-09-10T09:02:10.588Z,1017.95
2018-09-10T09:03:10.614Z,1017.92
2018-09-10T09:04:10.640Z,1017.93
2018-09-10T09:05:10.664Z,1017.90
2018-09-10T09:06:10.696Z,1017.91
2018-09-10T09:07:10.713Z,1017.91
2018-09-10T09:08:10.739Z,1017.90
2018-09-10T09:09:10.775Z,1017.91
2018-09-10T09:10:10.791Z,1017.94
2018-09-10T09:11:10.819Z,1017.90
2018-09-10T09:12:10.842Z,1017.96
2018-09-10T09:13:10.865Z,1017.99
2018-09-10T09:14:10.888Z,1017.97
2018-09-10T09:15:10.912Z,1017.97
2018-09-10T09:16:10.937Z,1017.98
2018-09-10T09:17:10.963Z,1017.91
2018-09-10T09:18:10.991Z,1017.87
2018-09-10T09:19:11.025Z,1017.87
2018-09-10T09:20:11.038Z,1017.84
2018-09-10T09:21:11.061Z,1017.84
2018-09-10T09:22:11.079Z,1017.84
2018-09-10T09:23:11.191Z,1017.89
2018-09-10T09:24:11.144Z,1017.86
2018-09-10T09:25:11.170Z,1017.88
2018-09-10T09:26:11.188Z,1017.89
2018-09-10T09:27:11.218Z,1017.93
2018-09-10T09:28:11.241Z,1017.90
2018-09-10T09:29:11.265Z,1017.87
2018-09-10T09:30:11.308Z,1017.89
2018-09-10T09:31:11.313Z,1017.92
2018-09-10T09:32:11.338Z,1017.94
2018-09-10T09:33:11.364Z,1017.88
2018-09-10T09:34:11.391Z,1017.86
2018-09-10T09:35:11.422Z,1017.91
2018-09-10T09:36:11.461Z,1018.01
2018-09-10T09:37:11.468Z,1018.00
2018-09-10T09:38:11.489Z,1018.03
2018-09-10T09:39:11.515Z,1018.09
2018-09-10T09:40:11.536Z,1018.11
2018-09-10T09:41:11.576Z,1018.15
2018-09-10T09:42:11.595Z,1018.15
2018-09-10T09:43:11.669Z,1018.21
2018-09-10T09:44:11.642Z,1018.22
2018-09-10T09:45:11.666Z,1018.18
2018-09-10T09:46:11.691Z,1018.17
2018-09-10T09:47:11.713Z,1018.16
2018-09-10T09:48:11.741Z,1018.14
2018-09-10T09:49:11.764Z,1018.11
2018-09-10T09:50:11.790Z,1018.09
2018-09-10T09:51:11.866Z,1018.06
2018-09-10T09:52:11.847Z,1018.05
2018-09-10T09:53:11.866Z,1018.01
2018-09-10T09:54:11.891Z,1018.01
2018-09-10T09:55:11.915Z,1017.99
2018-09-10T09:56:11.940Z,1018.00
2018-09-10T09:57:11.965Z,1018.04
2018-09-10T09:58:11.988Z,1018.02
2018-09-10T09:59:12.015Z,1018.04
2018-09-10T10:00:12.037Z,1018.01
2018-09-10T10:01:12.063Z,1017.97
2018-09-10T10:02:12.093Z,1017.97
2018-09-10T10:03:12.115Z,1017.96
2018-09-10T10:04:12.278Z,1017.98
2018-09-10T10:05:12.167Z,1018.01
2018-09-10T10:06:12.195Z,1017.99
2018-09-10T10:07:12.214Z,1018.00
2018-09-10T10:08:12.234Z,1018.03
2018-09-10T10:09:12.266Z,1017.99
2018-09-10T10:10:12.299Z,1018.00
2018-09-10T10:11:12.375Z,1017.93
2018-09-10T10:12:12.443Z,1017.97
2018-09-10T10:13:12.366Z,1017.95
2018-09-10T10:14:13.169Z,1017.92
2018-09-10T10:15:12.443Z,1017.97
2018-09-10T10:16:12.448Z,1018.01
2018-09-10T10:17:12.465Z,1017.95
2018-09-10T10:18:12.509Z,1017.96
2018-09-10T10:19:12.527Z,1018.04
2018-09-10T10:20:13.193Z,1017.99
2018-09-10T10:21:12.587Z,1018.02
2018-09-10T10:22:12.598Z,1018.01
2018-09-10T10:23:12.652Z,1018.11
2018-09-10T10:24:12.659Z,1018.15
2018-09-10T10:25:12.671Z,1018.17
2018-09-10T10:26:12.725Z,1018.16
2018-09-10T10:27:12.731Z,1018.11
2018-09-10T10:28:12.787Z,1018.04
2018-09-10T10:29:12.795Z,1018.03
2018-09-10T10:30:12.800Z,1017.99
2018-09-10T10:31:13.835Z,1017.99
2018-09-10T10:32:12.869Z,1017.90
2018-09-10T10:33:12.874Z,1017.97
2018-09-10T10:34:12.898Z,1017.88
2018-09-10T10:35:12.938Z,1017.88
2018-09-10T10:36:13.623Z,1017.87
2018-09-10T10:37:13.003Z,1017.85
2018-09-10T10:38:13.012Z,1017.89
2018-09-10T10:39:13.034Z,1017.88
2018-09-10T10:40:13.045Z,1017.94
2018-09-10T10:41:13.074Z,1018.05
2018-09-10T10:42:13.097Z,1018.03
2018-09-10T10:43:13.122Z,1017.99
2018-09-10T10:44:13.146Z,1018.00
2018-09-10T10:45:13.174Z,1017.93
2018-09-10T10:46:13.196Z,1017.88
2018-09-10T10:47:13.225Z,1017.80
2018-09-10T10:48:13.250Z,1017.79
2018-09-10T10:49:13.275Z,1017.76
2018-09-10T10:50:13.300Z,1017.82
2018-09-10T10:51:13.329Z,1017.82
2018-09-10T10:52:13.350Z,1017.83
2018-09-10T10:53:13.378Z,1017.86
2018-09-10T10:54:13.400Z,1017.84
2018-09-10T10:55:13.427Z,1017.86
2018-09-10T10:56:13.452Z,1017.87
2018-09-10T10:57:13.494Z,1017.87
2018-09-10T10:58:13.504Z,1017.91
2018-09-10T10:59:13.531Z,1017.91
2018-09-10T11:00:13.554Z,1017.93
2018-09-10T11:01:13.587Z,1017.89
2018-09-10T11:02:13.603Z,1017.89
2018-09-10T11:03:13.626Z,1017.90
2018-09-10T11:04:13.701Z,1017.91
2018-09-10T11:05:13.677Z,1017.90
2018-09-10T11:06:13.701Z,1017.93
2018-09-10T11:07:13.729Z,1017.92
2018-09-10T11:08:13.756Z,1017.97
2018-09-10T11:09:13.781Z,1017.91
2018-09-10T11:10:13.808Z,1017.93
2018-09-10T11:11:13.831Z,1017.94
2018-09-10T11:12:13.858Z,1017.91
2018-09-10T11:13:13.880Z,1017.90
2018-09-10T11:14:13.906Z,1017.91
2018-09-10T11:15:13.936Z,1017.91
2018-09-10T11:16:13.960Z,1017.92
2018-09-10T11:17:13.981Z,1017.91
2018-09-10T11:18:14.010Z,1017.95
2018-09-10T11:19:14.033Z,1017.95
2018-09-10T11:20:14.060Z,1017.96
2018-09-10T11:21:14.087Z,1018.00
2018-09-10T11:22:14.131Z,1018.06
2018-09-10T11:23:14.136Z,1018.06
2018-09-10T11:24:14.160Z,1018.12
2018-09-10T11:25:14.186Z,1018.08
2018-09-10T11:26:14.208Z,1018.14
2018-09-10T11:27:14.236Z,1018.18
2018-09-10T11:28:14.266Z,1018.15
2018-09-10T11:29:14.290Z,1018.15
2018-09-10T11:30:14.312Z,1018.15
2018-09-10T11:31:14.339Z,1018.09
2018-09-10T11:32:14.362Z,1018.07
2018-09-10T11:33:14.396Z,1018.08
2018-09-10T11:34:14.416Z,1018.12
2018-09-10T11:35:14.442Z,1018.07
2018-09-10T11:36:14.468Z,1018.12
2018-09-10T11:37:14.494Z,1018.09
2018-09-10T11:38:14.518Z,1018.11
2018-09-10T11:39:14.542Z,1018.10
2018-09-10T11:40:14.576Z,1018.11
2018-09-10T11:41:14.594Z,1018.09
2018-09-10T11:42:14.648Z,1018.06
2018-09-10T11:43:14.645Z,1018.08
2018-09-10T11:44:14.670Z,1018.09
2018-09-10T11:45:14.695Z,1018.04
2018-09-10T11:46:14.719Z,1017.99
2018-09-10T11:47:14.750Z,1018.02
2018-09-10T11:48:15.771Z,1018.04
2018-09-10T11:49:14.801Z,1018.01
2018-09-10T11:50:14.833Z,1018.09
2018-09-10T11:51:14.855Z,1018.05
2018-09-10T11:52:14.877Z,1018.05
2018-09-10T11:53:14.904Z,1018.04
2018-09-10T11:54:14.930Z,1018.12
2018-09-10T11:55:14.955Z,1018.05
2018-09-10T11:56:14.986Z,1018.05
2018-09-10T11:57:15.007Z,1018.02
2018-09-10T11:58:15.034Z,1017.99
2018-09-10T11:59:15.056Z,1018.10
2018-09-10T12:00:15.085Z,1018.09
2018-09-10T12:01:15.111Z,1018.11
2018-09-10T12:02:15.148Z,1018.09
2018-09-10T12:03:15.163Z,1018.12
2018-09-10T12:04:15.177Z,1018.14
2018-09-10T12:05:15.223Z,1018.15
2018-09-10T12:06:15.242Z,1018.18